CheckWX is a tool to help pilots better visualize weather data.  It is not intended as a substitute for an official pre-flight weather briefing.

15:28:34 UTC

CYYJ METAR
Victoria International Airport
Victoria, Canada
Current

29 mins ago

CYYJ 201500Z 00000KT 30SM -RA FEW013 FEW065 BKN080 OVC100 13/11 A2972 RMK SC1SC2AC5AC1 SC TR -RA INTMT SLP067 DENSITY ALT 100FT
Observed
May-20 @ 15:00 UTC
Visibility
30 SM
Flight Rules
VFR
Conditions
Light Rain
Cloud Levels
  • Few at 1,300' AGL
  • Few at 6,500' AGL
  • Broken at 8,000' AGL
  • Overcast at 10,000' AGL
Temperature
13°C / 55°F
Dewpoint
11°C / 52°F
Humidity
88%
Altimeter
29.72" Hg
Pressure
1006.42 hPa
Previous

1 hour ago

CYYJ 201417Z VRB02KT 30SM -RA FEW013 SCT079 OVC100 12/11 A2973 RMK SC1AC3AC5 SC TR SLP068
Observed
May-20 @ 14:17 UTC
Wind
  • Variable at 2 KTS
Visibility
30 SM
Flight Rules
VFR
Conditions
Light Rain
Cloud Levels
  • Few at 1,300' AGL
  • Scattered at 7,900' AGL
  • Overcast at 10,000' AGL
Temperature
12°C / 54°F
Dewpoint
11°C / 52°F
Humidity
94%
Altimeter
29.73" Hg
Pressure
1006.82 hPa
Previous

1 hour ago

CYYJ 201400Z VRB02KT 30SM FEW013 FEW025 FEW082 BKN100 OVC120 12/11 A2972 RMK SC1SC1AC2AC5AC1 SC TR SC TR SLP067
Observed
May-20 @ 14:00 UTC
Wind
  • Variable at 2 KTS
Visibility
30 SM
Flight Rules
VFR
Cloud Levels
  • Few at 1,300' AGL
  • Few at 2,500' AGL
  • Few at 8,200' AGL
  • Broken at 10,000' AGL
Temperature
12°C / 54°F
Dewpoint
11°C / 52°F
Humidity
94%
Altimeter
29.72" Hg
Pressure
1006.42 hPa